San Acacia, NM (87831)

6:13 PM MDT on September 18, 2014 (GMT -0600)
Community Road | Change Station
CLOSE
Current Station
Personal Weather Station
Location: Polvadera, NM
Elevation: 4645 ft
Nearby Weather Stations
Active Advisory: Flash Flood Watch Active Notice: Public Information Statement

Elev 4645 ft 34.20 °N, 106.91 °W | Updated 3 minutes ago

Mostly Cloudy
Mostly Cloudy
72.5 °F
Feels Like 73 °F
N
7.6
Wind Variable Wind from SSE
Gusts 7.6 mph

Today
High -- | Low -- °F
--% Chance of Precip.
Yesterday
High -- | Low -- °F
Precip. -- in
6:52 AM 7:09 PM
Waning Crescent, 23% visible
Pressure 29.98 in
Visibility 10.0 miles
Clouds Scattered Clouds 11000 ft
Heat Index 73 °F
Dew Point 66 °F
Humidity 79%
Rainfall 0.05 in
Snow Depth 0 in , 1 in , 0 in
UV 1 out of 12
Pollen 1.40 out of 12
Air Quality Not available.
Flu Activity Not available.
METAR KONM 182355Z AUTO 16008KT 10SM SCT110 22/17 A2998 RMK AO2 60006 T02190167 10241 20182

More Conditions Fewer Conditions

Pressure 29.98 in
Visibility 10.0 miles
Clouds Scattered Clouds 11000 ft
Heat Index 73 °F
Dew Point 66 °F
Humidity 79%
Rainfall 0.05 in
Snow Depth 0 in , 1 in , 0 in
UV 1 out of 12
Pollen 1.40 out of 12
Air Quality Not available.
Flu Activity Not available.
METAR KONM 182355Z AUTO 16008KT 10SM SCT110 22/17 A2998 RMK AO2 60006 T02190167 10241 20182

More Conditions Fewer Conditions

Nowcast | as of 4:52 PM MDT on September 18, 2014

Scattered showers will continue from Catron County eastward across Socorro...Lincoln...Chaves and Roosevelt counties through the early evening hours. Most of these showers will produce one quarter inch of rain or less through 7 PM...though...isolated areas may receive up to one half inch. Areas that will see some rainfall include Quemado...portions of the Whitewater Baldy burn scar...Socorro.... Bingham...Ruidoso...Dunken...Roswell and Elida. Ponding of water may persist along low spots or poor drainage areas.

×

10-Day Weather Forecast

Almanac

Astronomy

Sep. 18, 2014 Rise Set
Actual Time 6:52 AM MDT 7:09 PM MDT
Civil Twilight 6:27 AM MDT 7:35 PM MDT
Nautical Twilight 5:58 AM MDT 8:04 PM MDT
Astronomical Twilight 5:28 AM MDT 8:34 PM MDT
Moon 1:57 AM MDT (9/18) 3:53 PM MDT (9/18)
Length of Visible Light 13h 07m
Length of Day
12h 17m
Tomorrow will be 2m 7s shorter.
Waning Crescent, 23% of the Moon is Illuminated
Today
Waning Crescent
Sep 24
New
Oct 1
First Quarter
Oct 8
Full
Oct 15
Last Quarter

Today's Extremes

State Highs State Lows

Community

WunderPhotos

Upload Photos

1,754,501 photos uploaded!

WunderBlogs® & News

Nearby

Snow Depth

Station Depth Elevation
Silver Creek Divide 2 in 9000 ft
Signal Peak 0 in 8360 ft
Sierra Blanca 1 in 10280 ft
North Costilla 0 in 10600 ft
McKnight Cabin 0 in 9240 ft

Earthquake Activity

City Distance Mag. Time & Date
No recent earthquake activity has been reported nearby.
Minimum magnitude displayed is 2.5.

Coastal Water Temperatures

Place Temperature
No Stations Reporting

Nearby Weather Stations